CEB892 RPVE-RPLL
Flight info
| Callsign | CEB892 |
|---|---|
| Flight time | 0h 53m |
| Altitude | 24000 |
| Route | MINOR8A MINOR B473 LAIYA LAIYA5R |
| Aircraft | A320/M-SDE3FGHIRWY/LB1 |
Departure
| Time | 2026-04-25 13:53 |
|---|---|
| Airport | Godofredo P. Ramos Airport (RPVE) |
Arrival
| Time | 2026-04-25 14:46 |
|---|---|
| Airport | Ninoy Aquino International Airport (RPLL) |
| Time | Latitude | Longitude | Altitude | Speed | Heading |
|---|---|---|---|---|---|
| 2026-04-25 13:25 | 11.92555 | 121.96290 | 19 ft | 0 kts | 63° |
| 2026-04-25 13:43 | 11.92555 | 121.96289 | 19 ft | 1 kts | 63° |
| 2026-04-25 13:44 | 11.92548 | 121.96275 | 19 ft | 2 kts | 63° |
| 2026-04-25 13:44 | 11.92542 | 121.96263 | 19 ft | 0 kts | 63° |
| 2026-04-25 13:44 | 11.92541 | 121.96262 | 19 ft | 1 kts | 63° |
| 2026-04-25 13:44 | 11.92522 | 121.96246 | 19 ft | 2 kts | 7° |
| 2026-04-25 13:45 | 11.92508 | 121.96247 | 19 ft | 1 kts | 338° |
| 2026-04-25 13:45 | 11.92502 | 121.96250 | 19 ft | 1 kts | 330° |
| 2026-04-25 13:45 | 11.92500 | 121.96252 | 19 ft | 0 kts | 332° |
| 2026-04-25 13:48 | 11.92501 | 121.96251 | 19 ft | 1 kts | 333° |
| 2026-04-25 13:48 | 11.92517 | 121.96242 | 19 ft | 0 kts | 333° |
| 2026-04-25 13:48 | 11.92529 | 121.96237 | 19 ft | 4 kts | 335° |
| 2026-04-25 13:48 | 11.92573 | 121.96214 | 19 ft | 8 kts | 332° |
| 2026-04-25 13:49 | 11.92626 | 121.96195 | 19 ft | 8 kts | 348° |
| 2026-04-25 13:49 | 11.92685 | 121.96172 | 19 ft | 9 kts | 334° |
| 2026-04-25 13:49 | 11.92751 | 121.96139 | 19 ft | 11 kts | 334° |
| 2026-04-25 13:49 | 11.92798 | 121.96086 | 19 ft | 10 kts | 260° |
| 2026-04-25 13:50 | 11.92764 | 121.96012 | 19 ft | 12 kts | 242° |
| 2026-04-25 13:50 | 11.92721 | 121.95924 | 19 ft | 15 kts | 242° |
| 2026-04-25 13:50 | 11.92666 | 121.95815 | 19 ft | 19 kts | 243° |
| 2026-04-25 13:50 | 11.92598 | 121.95679 | 19 ft | 23 kts | 243° |
| 2026-04-25 13:51 | 11.92516 | 121.95517 | 19 ft | 27 kts | 243° |
| 2026-04-25 13:51 | 11.92433 | 121.95354 | 19 ft | 25 kts | 243° |
| 2026-04-25 13:51 | 11.92355 | 121.95197 | 19 ft | 24 kts | 243° |
| 2026-04-25 13:51 | 11.92289 | 121.95073 | 19 ft | 10 kts | 228° |
| 2026-04-25 13:52 | 11.92236 | 121.95022 | 19 ft | 8 kts | 245° |
| 2026-04-25 13:52 | 11.92265 | 121.95016 | 19 ft | 8 kts | 59° |
| 2026-04-25 13:52 | 11.92366 | 121.95220 | 19 ft | 72 kts | 62° |
| 2026-04-25 13:52 | 11.92719 | 121.95923 | 23 ft | 147 kts | 63° |
| 2026-04-25 13:53 | 11.93205 | 121.96890 | 671 ft | 154 kts | 63° |
| 2026-04-25 13:53 | 11.93664 | 121.97815 | 1611 ft | 149 kts | 64° |
| 2026-04-25 13:53 | 11.94104 | 121.98698 | 2349 ft | 139 kts | 64° |
| 2026-04-25 13:53 | 11.94542 | 121.99579 | 2867 ft | 140 kts | 64° |
| 2026-04-25 13:54 | 11.94985 | 122.00467 | 3345 ft | 145 kts | 64° |
| 2026-04-25 13:54 | 11.95301 | 122.01102 | 3566 ft | 155 kts | 64° |
| 2026-04-25 13:54 | 11.95820 | 122.02131 | 3874 ft | 173 kts | 61° |
| 2026-04-25 13:54 | 11.96672 | 122.03083 | 4211 ft | 194 kts | 39° |
| 2026-04-25 13:55 | 11.98410 | 122.04042 | 4645 ft | 225 kts | 31° |
| 2026-04-25 13:55 | 11.99871 | 122.04782 | 5069 ft | 243 kts | 30° |
| 2026-04-25 13:55 | 12.01436 | 122.05572 | 5522 ft | 259 kts | 30° |
| 2026-04-25 13:55 | 12.03085 | 122.06403 | 6196 ft | 266 kts | 30° |
| 2026-04-25 13:56 | 12.04774 | 122.07254 | 6927 ft | 270 kts | 29° |
| 2026-04-25 13:56 | 12.06465 | 122.08109 | 7604 ft | 275 kts | 28° |
| 2026-04-25 13:56 | 12.08182 | 122.08976 | 8262 ft | 279 kts | 28° |
| 2026-04-25 13:56 | 12.09945 | 122.09866 | 8921 ft | 283 kts | 27° |
| 2026-04-25 13:57 | 12.11748 | 122.10777 | 9572 ft | 287 kts | 27° |
| 2026-04-25 13:57 | 12.12325 | 122.11069 | 9775 ft | 289 kts | 27° |
| 2026-04-25 13:57 | 12.15385 | 122.12612 | 10607 ft | 304 kts | 27° |
| 2026-04-25 13:57 | 12.17343 | 122.13600 | 10886 ft | 320 kts | 27° |
| 2026-04-25 13:58 | 12.19412 | 122.14645 | 11156 ft | 336 kts | 26° |
| 2026-04-25 13:58 | 12.21562 | 122.15732 | 11408 ft | 351 kts | 26° |
| 2026-04-25 13:58 | 12.23781 | 122.16853 | 11744 ft | 361 kts | 26° |
| 2026-04-25 13:58 | 12.26049 | 122.18002 | 12269 ft | 365 kts | 26° |
| 2026-04-25 13:59 | 12.28363 | 122.19173 | 12806 ft | 368 kts | 26° |
| 2026-04-25 13:59 | 12.30663 | 122.20338 | 13310 ft | 371 kts | 26° |
| 2026-04-25 13:59 | 12.33011 | 122.21519 | 13801 ft | 375 kts | 24° |
| 2026-04-25 13:59 | 12.35497 | 122.22282 | 14234 ft | 378 kts | 5° |
| 2026-04-25 14:01 | 12.46775 | 122.16630 | 16340 ft | 392 kts | 325° |
| 2026-04-25 14:01 | 12.49025 | 122.15053 | 16753 ft | 395 kts | 325° |
| 2026-04-25 14:01 | 12.51325 | 122.13446 | 17147 ft | 398 kts | 325° |
| 2026-04-25 14:01 | 12.53603 | 122.11859 | 17534 ft | 401 kts | 325° |
| 2026-04-25 14:02 | 12.55930 | 122.10239 | 17933 ft | 403 kts | 325° |
| 2026-04-25 14:02 | 12.58273 | 122.08609 | 18321 ft | 405 kts | 325° |
| 2026-04-25 14:02 | 12.60613 | 122.06982 | 18688 ft | 407 kts | 325° |
| 2026-04-25 14:02 | 12.61410 | 122.06427 | 18813 ft | 408 kts | 325° |
| 2026-04-25 14:04 | 12.74833 | 121.97087 | 20781 ft | 419 kts | 324° |
| 2026-04-25 14:04 | 12.77241 | 121.95410 | 21101 ft | 421 kts | 324° |
| 2026-04-25 14:04 | 12.79667 | 121.93720 | 21415 ft | 423 kts | 324° |
| 2026-04-25 14:04 | 12.82130 | 121.92003 | 21733 ft | 425 kts | 324° |
| 2026-04-25 14:05 | 12.84579 | 121.90297 | 21912 ft | 426 kts | 324° |
| 2026-04-25 14:05 | 12.87043 | 121.88579 | 21916 ft | 426 kts | 324° |
| 2026-04-25 14:05 | 12.89490 | 121.86872 | 21921 ft | 425 kts | 324° |
| 2026-04-25 14:05 | 12.91946 | 121.85159 | 21923 ft | 425 kts | 324° |
| 2026-04-25 14:06 | 12.94418 | 121.83435 | 21924 ft | 425 kts | 324° |
| 2026-04-25 14:06 | 12.96871 | 121.81723 | 21925 ft | 425 kts | 324° |
| 2026-04-25 14:06 | 12.99311 | 121.80020 | 21931 ft | 425 kts | 324° |
| 2026-04-25 14:06 | 13.01754 | 121.78315 | 21934 ft | 425 kts | 324° |
| 2026-04-25 14:07 | 13.04200 | 121.76606 | 21929 ft | 425 kts | 324° |
| 2026-04-25 14:07 | 13.06642 | 121.74900 | 21937 ft | 425 kts | 324° |
| 2026-04-25 14:07 | 13.09093 | 121.73189 | 21927 ft | 423 kts | 324° |
| 2026-04-25 14:07 | 13.11530 | 121.71487 | 21640 ft | 417 kts | 324° |
| 2026-04-25 14:08 | 13.13911 | 121.69821 | 21033 ft | 416 kts | 324° |
| 2026-04-25 14:08 | 13.16306 | 121.68144 | 20429 ft | 414 kts | 324° |
| 2026-04-25 14:08 | 13.18697 | 121.66472 | 20053 ft | 410 kts | 324° |
| 2026-04-25 14:08 | 13.21057 | 121.64819 | 19951 ft | 416 kts | 324° |
| 2026-04-25 14:09 | 13.23508 | 121.63105 | 19945 ft | 428 kts | 324° |
| 2026-04-25 14:09 | 13.25998 | 121.61362 | 19949 ft | 439 kts | 324° |
| 2026-04-25 14:09 | 13.28532 | 121.59588 | 19950 ft | 448 kts | 324° |
| 2026-04-25 14:09 | 13.30280 | 121.58365 | 19944 ft | 454 kts | 324° |
| 2026-04-25 14:10 | 13.33796 | 121.55902 | 19943 ft | 462 kts | 324° |
| 2026-04-25 14:10 | 13.36462 | 121.54035 | 19943 ft | 463 kts | 324° |
| 2026-04-25 14:10 | 13.39137 | 121.52161 | 19947 ft | 462 kts | 324° |
| 2026-04-25 14:10 | 13.41786 | 121.50304 | 19946 ft | 462 kts | 324° |
| 2026-04-25 14:11 | 13.44454 | 121.48433 | 19948 ft | 461 kts | 324° |
| 2026-04-25 14:11 | 13.47109 | 121.46569 | 19947 ft | 461 kts | 324° |
| 2026-04-25 14:11 | 13.49642 | 121.44791 | 19951 ft | 461 kts | 324° |
| 2026-04-25 14:11 | 13.52317 | 121.42911 | 19939 ft | 461 kts | 324° |
| 2026-04-25 14:12 | 13.54961 | 121.41054 | 19942 ft | 461 kts | 324° |
| 2026-04-25 14:12 | 13.57648 | 121.39168 | 19942 ft | 459 kts | 324° |
| 2026-04-25 14:12 | 13.60234 | 121.37369 | 19948 ft | 438 kts | 324° |
| 2026-04-25 14:12 | 13.62720 | 121.35645 | 19953 ft | 418 kts | 324° |
| 2026-04-25 14:13 | 13.65104 | 121.33991 | 19958 ft | 411 kts | 324° |
| 2026-04-25 14:13 | 13.67445 | 121.32361 | 19954 ft | 410 kts | 324° |
| 2026-04-25 14:13 | 13.69866 | 121.30736 | 19946 ft | 410 kts | 329° |
| 2026-04-25 14:13 | 13.72521 | 121.29618 | 19952 ft | 413 kts | 345° |
| 2026-04-25 14:14 | 13.75344 | 121.29208 | 19966 ft | 414 kts | 355° |
| 2026-04-25 14:14 | 13.78268 | 121.29079 | 19961 ft | 414 kts | 357° |
| 2026-04-25 14:14 | 13.81146 | 121.29005 | 19955 ft | 413 kts | 357° |
| 2026-04-25 14:14 | 13.84024 | 121.28942 | 19705 ft | 408 kts | 357° |
| 2026-04-25 14:15 | 13.86889 | 121.28877 | 19126 ft | 406 kts | 357° |
| 2026-04-25 14:15 | 13.88774 | 121.28831 | 18734 ft | 405 kts | 357° |
| 2026-04-25 14:15 | 13.92501 | 121.28735 | 18032 ft | 401 kts | 357° |
| 2026-04-25 14:15 | 13.95284 | 121.28661 | 17526 ft | 398 kts | 357° |
| 2026-04-25 14:16 | 13.98086 | 121.28584 | 17020 ft | 394 kts | 357° |
| 2026-04-25 14:16 | 14.00788 | 121.28254 | 16494 ft | 390 kts | 343° |
| 2026-04-25 14:16 | 14.03252 | 121.27168 | 16002 ft | 385 kts | 327° |
| 2026-04-25 14:16 | 14.05378 | 121.25542 | 15532 ft | 380 kts | 319° |
| 2026-04-25 14:17 | 14.07380 | 121.23764 | 15039 ft | 378 kts | 317° |
| 2026-04-25 14:17 | 14.09336 | 121.21975 | 14538 ft | 376 kts | 317° |
| 2026-04-25 14:17 | 14.11303 | 121.20169 | 14030 ft | 373 kts | 317° |
| 2026-04-25 14:17 | 14.13245 | 121.18385 | 13514 ft | 371 kts | 317° |
| 2026-04-25 14:18 | 14.15177 | 121.16610 | 12990 ft | 370 kts | 317° |
| 2026-04-25 14:18 | 14.17078 | 121.14863 | 12473 ft | 367 kts | 317° |
| 2026-04-25 14:18 | 14.18966 | 121.13117 | 11961 ft | 365 kts | 317° |
| 2026-04-25 14:18 | 14.20851 | 121.11362 | 11446 ft | 362 kts | 317° |
| 2026-04-25 14:19 | 14.22713 | 121.09613 | 10919 ft | 360 kts | 317° |
| 2026-04-25 14:19 | 14.24559 | 121.07862 | 10444 ft | 356 kts | 317° |
| 2026-04-25 14:19 | 14.26332 | 121.06166 | 10191 ft | 341 kts | 317° |
| 2026-04-25 14:19 | 14.28014 | 121.04547 | 9962 ft | 329 kts | 317° |
| 2026-04-25 14:20 | 14.29679 | 121.02939 | 9766 ft | 318 kts | 317° |
| 2026-04-25 14:20 | 14.30744 | 121.01907 | 9639 ft | 311 kts | 317° |
| 2026-04-25 14:20 | 14.32822 | 120.99888 | 9397 ft | 298 kts | 317° |
| 2026-04-25 14:20 | 14.34307 | 120.98441 | 9140 ft | 293 kts | 317° |
| 2026-04-25 14:21 | 14.35781 | 120.97005 | 8787 ft | 291 kts | 317° |
| 2026-04-25 14:21 | 14.37241 | 120.95579 | 8442 ft | 289 kts | 317° |
| 2026-04-25 14:21 | 14.38714 | 120.94133 | 8079 ft | 288 kts | 317° |
| 2026-04-25 14:21 | 14.40154 | 120.92712 | 7739 ft | 286 kts | 317° |
| 2026-04-25 14:22 | 14.41582 | 120.91308 | 7388 ft | 284 kts | 317° |
| 2026-04-25 14:22 | 14.43014 | 120.89895 | 7044 ft | 282 kts | 317° |
| 2026-04-25 14:22 | 14.44442 | 120.88482 | 6990 ft | 282 kts | 317° |
| 2026-04-25 14:22 | 14.45833 | 120.87105 | 6811 ft | 278 kts | 317° |
| 2026-04-25 14:23 | 14.47231 | 120.85716 | 6300 ft | 280 kts | 317° |
| 2026-04-25 14:23 | 14.48644 | 120.84307 | 5796 ft | 279 kts | 317° |
| 2026-04-25 14:23 | 14.50037 | 120.82912 | 5158 ft | 282 kts | 317° |
| 2026-04-25 14:23 | 14.51506 | 120.81560 | 4271 ft | 291 kts | 324° |
| 2026-04-25 14:24 | 14.53151 | 120.80325 | 3566 ft | 291 kts | 327° |
| 2026-04-25 14:24 | 14.54783 | 120.79152 | 3138 ft | 280 kts | 327° |
| 2026-04-25 14:24 | 14.56364 | 120.78017 | 2990 ft | 267 kts | 327° |
| 2026-04-25 14:24 | 14.57883 | 120.76927 | 2986 ft | 266 kts | 327° |
| 2026-04-25 14:25 | 14.59428 | 120.75820 | 2986 ft | 266 kts | 327° |
| 2026-04-25 14:25 | 14.60955 | 120.74751 | 2985 ft | 265 kts | 333° |
| 2026-04-25 14:25 | 14.62703 | 120.74204 | 2967 ft | 259 kts | 2° |
| 2026-04-25 14:25 | 14.63878 | 120.74343 | 2896 ft | 257 kts | 17° |
| 2026-04-25 14:26 | 14.65841 | 120.75664 | 2739 ft | 255 kts | 53° |
| 2026-04-25 14:26 | 14.66497 | 120.79059 | 2683 ft | 243 kts | 104° |
| 2026-04-25 14:26 | 14.65906 | 120.80695 | 2690 ft | 244 kts | 110° |
| 2026-04-25 14:27 | 14.65260 | 120.82335 | 2688 ft | 244 kts | 110° |
| 2026-04-25 14:27 | 14.64615 | 120.83978 | 2689 ft | 244 kts | 109° |
| 2026-04-25 14:27 | 14.63983 | 120.85603 | 2689 ft | 244 kts | 109° |
| 2026-04-25 14:27 | 14.63333 | 120.87232 | 2683 ft | 245 kts | 115° |
| 2026-04-25 14:28 | 14.62323 | 120.88657 | 2685 ft | 248 kts | 129° |
| 2026-04-25 14:28 | 14.61166 | 120.89993 | 2561 ft | 248 kts | 129° |
| 2026-04-25 14:28 | 14.60021 | 120.91305 | 2269 ft | 243 kts | 129° |
| 2026-04-25 14:28 | 14.58912 | 120.92593 | 1968 ft | 239 kts | 129° |
| 2026-04-25 14:29 | 14.57821 | 120.93871 | 1662 ft | 232 kts | 129° |
| 2026-04-25 14:29 | 14.56782 | 120.95094 | 1359 ft | 218 kts | 129° |
| 2026-04-25 14:29 | 14.55813 | 120.96239 | 1081 ft | 208 kts | 129° |
| 2026-04-25 14:29 | 14.54889 | 120.97332 | 895 ft | 192 kts | 129° |
| 2026-04-25 14:30 | 14.54064 | 120.98371 | 689 ft | 178 kts | 125° |
| 2026-04-25 14:30 | 14.52519 | 121.00266 | 834 ft | 178 kts | 132° |
| 2026-04-25 14:30 | 14.51687 | 121.01144 | 1686 ft | 172 kts | 131° |
| 2026-04-25 14:31 | 14.50827 | 121.02032 | 2126 ft | 183 kts | 132° |
| 2026-04-25 14:31 | 14.49865 | 121.03018 | 2477 ft | 202 kts | 132° |
| 2026-04-25 14:31 | 14.48840 | 121.04069 | 2852 ft | 218 kts | 132° |
| 2026-04-25 14:31 | 14.47731 | 121.05206 | 2921 ft | 223 kts | 132° |
| 2026-04-25 14:32 | 14.46625 | 121.06342 | 2963 ft | 223 kts | 132° |
| 2026-04-25 14:32 | 14.45397 | 121.07322 | 2971 ft | 226 kts | 155° |
| 2026-04-25 14:32 | 14.43825 | 121.07533 | 3039 ft | 236 kts | 189° |
| 2026-04-25 14:32 | 14.42337 | 121.06795 | 3528 ft | 242 kts | 221° |
| 2026-04-25 14:33 | 14.41393 | 121.05366 | 3896 ft | 241 kts | 253° |
| 2026-04-25 14:33 | 14.41074 | 121.03676 | 4002 ft | 241 kts | 264° |
| 2026-04-25 14:33 | 14.40929 | 121.01955 | 4019 ft | 240 kts | 268° |
| 2026-04-25 14:33 | 14.41027 | 121.00255 | 4012 ft | 238 kts | 283° |
| 2026-04-25 14:34 | 14.41407 | 120.98576 | 4005 ft | 238 kts | 287° |
| 2026-04-25 14:34 | 14.41832 | 120.96942 | 3994 ft | 237 kts | 287° |
| 2026-04-25 14:34 | 14.42272 | 120.95303 | 3992 ft | 237 kts | 287° |
| 2026-04-25 14:34 | 14.42717 | 120.93655 | 4005 ft | 236 kts | 287° |
| 2026-04-25 14:35 | 14.43159 | 120.92025 | 4003 ft | 236 kts | 287° |
| 2026-04-25 14:35 | 14.43603 | 120.90398 | 3994 ft | 236 kts | 287° |
| 2026-04-25 14:35 | 14.44054 | 120.88747 | 3992 ft | 236 kts | 287° |
| 2026-04-25 14:35 | 14.44501 | 120.87107 | 4000 ft | 236 kts | 287° |
| 2026-04-25 14:36 | 14.44953 | 120.85478 | 4008 ft | 236 kts | 290° |
| 2026-04-25 14:36 | 14.45727 | 120.84009 | 3992 ft | 231 kts | 311° |
| 2026-04-25 14:36 | 14.46804 | 120.82781 | 4003 ft | 230 kts | 316° |
| 2026-04-25 14:36 | 14.47935 | 120.81599 | 4005 ft | 230 kts | 317° |
| 2026-04-25 14:37 | 14.49068 | 120.80433 | 3998 ft | 229 kts | 317° |
| 2026-04-25 14:37 | 14.50202 | 120.79266 | 3980 ft | 227 kts | 317° |
| 2026-04-25 14:37 | 14.51321 | 120.78114 | 3745 ft | 226 kts | 317° |
| 2026-04-25 14:37 | 14.52452 | 120.76981 | 3416 ft | 226 kts | 326° |
| 2026-04-25 14:38 | 14.53857 | 120.76331 | 3157 ft | 217 kts | 351° |
| 2026-04-25 14:38 | 14.55329 | 120.76094 | 3017 ft | 208 kts | 356° |
| 2026-04-25 14:38 | 14.56725 | 120.75937 | 2977 ft | 198 kts | 357° |
| 2026-04-25 14:38 | 14.58125 | 120.75796 | 2976 ft | 200 kts | 357° |
| 2026-04-25 14:39 | 14.59510 | 120.75663 | 2974 ft | 200 kts | 357° |
| 2026-04-25 14:39 | 14.60903 | 120.75708 | 2953 ft | 197 kts | 20° |
| 2026-04-25 14:39 | 14.62006 | 120.76461 | 2814 ft | 192 kts | 54° |
| 2026-04-25 14:39 | 14.62489 | 120.77729 | 2705 ft | 192 kts | 83° |
| 2026-04-25 14:40 | 14.62598 | 120.79116 | 2682 ft | 192 kts | 84° |
| 2026-04-25 14:40 | 14.62710 | 120.80495 | 2675 ft | 192 kts | 83° |
| 2026-04-25 14:40 | 14.62826 | 120.81871 | 2764 ft | 193 kts | 83° |
| 2026-04-25 14:40 | 14.62943 | 120.83246 | 2723 ft | 192 kts | 83° |
| 2026-04-25 14:41 | 14.63059 | 120.84615 | 2696 ft | 188 kts | 83° |
| 2026-04-25 14:41 | 14.63172 | 120.85932 | 2681 ft | 181 kts | 83° |
| 2026-04-25 14:41 | 14.63241 | 120.87247 | 2673 ft | 182 kts | 94° |
| 2026-04-25 14:41 | 14.62705 | 120.88422 | 2673 ft | 182 kts | 126° |
| 2026-04-25 14:42 | 14.61863 | 120.89365 | 2671 ft | 179 kts | 131° |
| 2026-04-25 14:42 | 14.61281 | 120.89974 | 2579 ft | 178 kts | 131° |
| 2026-04-25 14:42 | 14.60146 | 120.91200 | 2323 ft | 170 kts | 129° |
| 2026-04-25 14:42 | 14.59379 | 120.92060 | 2099 ft | 156 kts | 128° |
| 2026-04-25 14:43 | 14.58684 | 120.92857 | 1887 ft | 143 kts | 127° |
| 2026-04-25 14:43 | 14.58033 | 120.93619 | 1710 ft | 139 kts | 127° |
| 2026-04-25 14:43 | 14.57400 | 120.94369 | 1551 ft | 139 kts | 127° |
| 2026-04-25 14:43 | 14.56757 | 120.95129 | 1370 ft | 139 kts | 128° |
| 2026-04-25 14:44 | 14.56123 | 120.95882 | 1186 ft | 139 kts | 128° |
| 2026-04-25 14:44 | 14.55488 | 120.96632 | 1005 ft | 138 kts | 129° |
| 2026-04-25 14:44 | 14.54861 | 120.97392 | 824 ft | 137 kts | 124° |
| 2026-04-25 14:44 | 14.54341 | 120.98201 | 638 ft | 136 kts | 122° |
| 2026-04-25 14:45 | 14.53742 | 120.98959 | 489 ft | 135 kts | 132° |
| 2026-04-25 14:45 | 14.53083 | 120.99654 | 321 ft | 135 kts | 134° |
| 2026-04-25 14:45 | 14.52413 | 121.00349 | 158 ft | 135 kts | 133° |
| 2026-04-25 14:45 | 14.51774 | 121.01013 | 82 ft | 115 kts | 134° |
| 2026-04-25 14:46 | 14.51422 | 121.01376 | 82 ft | 29 kts | 135° |
| 2026-04-25 14:46 | 14.51351 | 121.01450 | 82 ft | 11 kts | 133° |
| 2026-04-25 14:46 | 14.51352 | 121.01518 | 82 ft | 9 kts | 54° |
| 2026-04-25 14:46 | 14.51382 | 121.01543 | 82 ft | 3 kts | 8° |
| 2026-04-25 14:47 | 14.51413 | 121.01528 | 82 ft | 6 kts | 319° |
| 2026-04-25 14:47 | 14.51439 | 121.01500 | 82 ft | 9 kts | 313° |
| 2026-04-25 14:47 | 14.51520 | 121.01418 | 82 ft | 14 kts | 315° |
| 2026-04-25 14:47 | 14.51600 | 121.01337 | 82 ft | 17 kts | 316° |
| 2026-04-25 14:48 | 14.51688 | 121.01246 | 82 ft | 17 kts | 313° |
| 2026-04-25 14:48 | 14.51769 | 121.01160 | 82 ft | 16 kts | 315° |
| 2026-04-25 14:48 | 14.51845 | 121.01082 | 82 ft | 12 kts | 314° |
| 2026-04-25 14:48 | 14.51905 | 121.01045 | 82 ft | 9 kts | 21° |
| 2026-04-25 14:49 | 14.51969 | 121.01072 | 82 ft | 10 kts | 14° |
| 2026-04-25 14:49 | 14.52021 | 121.01111 | 82 ft | 5 kts | 46° |
| 2026-04-25 14:49 | 14.52045 | 121.01136 | 82 ft | 2 kts | 45° |
| 2026-04-25 14:49 | 14.52051 | 121.01143 | 82 ft | 0 kts | 45° |